sensor_id;sensor_type;location;lat;lon;timestamp;pressure;altitude;pressure_sealevel;temperature;humidity
36454;BME280;22478;51.740;-1.314;2022-09-27T00:00:14;99231.26;;;0.13;100.00
36454;BME280;22478;51.740;-1.314;2022-09-27T00:02:42;99234.69;;;0.30;100.00
36454;BME280;22478;51.740;-1.314;2022-09-27T00:05:09;99236.12;;;1.53;100.00
36454;BME280;22478;51.740;-1.314;2022-09-27T00:07:36;99237.79;;;0.44;100.00
36454;BME280;22478;51.740;-1.314;2022-09-27T00:10:04;99239.82;;;0.34;100.00
36454;BME280;22478;51.740;-1.314;2022-09-27T00:12:31;99242.46;;;1.49;100.00
36454;BME280;22478;51.740;-1.314;2022-09-27T00:14:58;99235.74;;;1.66;100.00
36454;BME280;22478;51.740;-1.314;2022-09-27T00:17:25;99230.14;;;1.88;100.00
36454;BME280;22478;51.740;-1.314;2022-09-27T00:19:52;99232.06;;;0.45;100.00
36454;BME280;22478;51.740;-1.314;2022-09-27T00:22:20;99225.49;;;0.74;100.00
36454;BME280;22478;51.740;-1.314;2022-09-27T00:24:47;99226.15;;;-0.01;100.00
36454;BME280;22478;51.740;-1.314;2022-09-27T00:27:15;99227.74;;;0.28;100.00
36454;BME280;22478;51.740;-1.314;2022-09-27T00:29:42;99229.48;;;-0.19;100.00
36454;BME280;22478;51.740;-1.314;2022-09-27T00:32:09;99227.16;;;0.77;100.00
36454;BME280;22478;51.740;-1.314;2022-09-27T00:34:36;99229.11;;;0.07;100.00
36454;BME280;22478;51.740;-1.314;2022-09-27T00:37:03;99232.20;;;0.52;100.00
36454;BME280;22478;51.740;-1.314;2022-09-27T00:39:30;99235.36;;;0.84;100.00
36454;BME280;22478;51.740;-1.314;2022-09-27T00:41:57;99243.17;;;-0.28;100.00
36454;BME280;22478;51.740;-1.314;2022-09-27T00:45:28;99246.62;;;0.78;100.00
36454;BME280;22478;51.740;-1.314;2022-09-27T00:47:59;99245.95;;;1.09;100.00
36454;BME280;22478;51.740;-1.314;2022-09-27T00:50:29;99245.84;;;1.37;100.00
36454;BME280;22478;51.740;-1.314;2022-09-27T00:53:04;99238.58;;;1.61;100.00
36454;BME280;22478;51.740;-1.314;2022-09-27T00:55:37;99239.82;;;1.76;100.00
36454;BME280;22478;51.740;-1.314;2022-09-27T00:58:06;99238.09;;;0.53;100.00
36454;BME280;22478;51.740;-1.314;2022-09-27T01:00:35;99234.85;;;1.28;100.00
36454;BME280;22478;51.740;-1.314;2022-09-27T01:03:06;99233.58;;;1.52;100.00
36454;BME280;22478;51.740;-1.314;2022-09-27T01:05:35;99227.81;;;0.55;100.00
36454;BME280;22478;51.740;-1.314;2022-09-27T01:08:03;99231.08;;;0.91;100.00
36454;BME280;22478;51.740;-1.314;2022-09-27T01:10:35;99232.31;;;0.94;100.00
36454;BME280;22478;51.740;-1.314;2022-09-27T01:13:12;99235.76;;;1.37;100.00
36454;BME280;22478;51.740;-1.314;2022-09-27T01:15:49;99238.90;;;0.71;100.00
36454;BME280;22478;51.740;-1.314;2022-09-27T01:18:27;99237.38;;;0.56;100.00
36454;BME280;22478;51.740;-1.314;2022-09-27T01:22:03;99235.62;;;0.15;100.00
36454;BME280;22478;51.740;-1.314;2022-09-27T01:24:51;99231.28;;;-0.31;100.00
36454;BME280;22478;51.740;-1.314;2022-09-27T01:27:48;99225.59;;;0.89;100.00
36454;BME280;22478;51.740;-1.314;2022-09-27T01:30:21;99225.79;;;1.03;100.00
36454;BME280;22478;51.740;-1.314;2022-09-27T01:32:54;99223.48;;;0.37;100.00
36454;BME280;22478;51.740;-1.314;2022-09-27T01:35:32;99219.47;;;-0.02;100.00
36454;BME280;22478;51.740;-1.314;2022-09-27T01:38:11;99214.12;;;0.59;100.00
36454;BME280;22478;51.740;-1.314;2022-09-27T01:40:44;99206.35;;;0.52;100.00
36454;BME280;22478;51.740;-1.314;2022-09-27T01:43:19;99205.36;;;1.43;100.00
36454;BME280;22478;51.740;-1.314;2022-09-27T01:45:50;99208.88;;;0.54;100.00
36454;BME280;22478;51.740;-1.314;2022-09-27T01:48:21;99208.24;;;1.27;100.00
36454;BME280;22478;51.740;-1.314;2022-09-27T01:50:53;99205.87;;;0.05;100.00
36454;BME280;22478;51.740;-1.314;2022-09-27T01:53:26;99212.21;;;0.24;100.00
36454;BME280;22478;51.740;-1.314;2022-09-27T01:55:56;99205.59;;;1.39;100.00
36454;BME280;22478;51.740;-1.314;2022-09-27T01:58:27;99206.52;;;1.07;100.00
36454;BME280;22478;51.740;-1.314;2022-09-27T02:00:58;99199.90;;;0.79;100.00
36454;BME280;22478;51.740;-1.314;2022-09-27T02:03:30;99197.72;;;1.80;100.00
36454;BME280;22478;51.740;-1.314;2022-09-27T02:06:02;99191.87;;;-0.07;100.00
36454;BME280;22478;51.740;-1.314;2022-09-27T02:08:34;99195.75;;;2.17;100.00
36454;BME280;22478;51.740;-1.314;2022-09-27T02:11:05;99199.43;;;1.49;100.00
36454;BME280;22478;51.740;-1.314;2022-09-27T02:13:41;99203.13;;;0.82;100.00
36454;BME280;22478;51.740;-1.314;2022-09-27T02:16:19;99207.64;;;0.35;100.00
36454;BME280;22478;51.740;-1.314;2022-09-27T02:18:54;99209.34;;;1.60;100.00
36454;BME280;22478;51.740;-1.314;2022-09-27T02:21:34;99204.47;;;0.13;100.00
36454;BME280;22478;51.740;-1.314;2022-09-27T02:24:06;99203.69;;;0.70;100.00
36454;BME280;22478;51.740;-1.314;2022-09-27T02:26:40;99212.72;;;0.53;100.00
36454;BME280;22478;51.740;-1.314;2022-09-27T02:29:10;99200.92;;;0.65;100.00
36454;BME280;22478;51.740;-1.314;2022-09-27T02:31:40;99205.11;;;0.52;100.00
36454;BME280;22478;51.740;-1.314;2022-09-27T02:34:10;99202.16;;;0.81;100.00
36454;BME280;22478;51.740;-1.314;2022-09-27T02:36:40;99202.18;;;0.75;100.00
36454;BME280;22478;51.740;-1.314;2022-09-27T02:39:08;99196.23;;;0.56;100.00
36454;BME280;22478;51.740;-1.314;2022-09-27T02:41:35;99180.73;;;1.18;100.00
36454;BME280;22478;51.740;-1.314;2022-09-27T02:44:04;99173.25;;;1.47;100.00
36454;BME280;22478;51.740;-1.314;2022-09-27T02:46:46;99181.60;;;1.70;100.00
36454;BME280;22478;51.740;-1.314;2022-09-27T02:49:28;99181.51;;;-0.49;100.00
36454;BME280;22478;51.740;-1.314;2022-09-27T02:52:08;99180.49;;;0.89;100.00
36454;BME280;22478;51.740;-1.314;2022-09-27T02:54:46;99175.87;;;0.88;100.00
36454;BME280;22478;51.740;-1.314;2022-09-27T02:57:24;99175.88;;;1.71;100.00
36454;BME280;22478;51.740;-1.314;2022-09-27T03:00:03;99171.68;;;0.17;100.00
36454;BME280;22478;51.740;-1.314;2022-09-27T03:02:34;99169.64;;;1.56;100.00
36454;BME280;22478;51.740;-1.314;2022-09-27T03:05:06;99164.51;;;0.50;100.00
36454;BME280;22478;51.740;-1.314;2022-09-27T03:07:35;99162.68;;;1.26;100.00
36454;BME280;22478;51.740;-1.314;2022-09-27T03:10:03;99163.76;;;1.39;100.00
36454;BME280;22478;51.740;-1.314;2022-09-27T03:12:31;99163.98;;;1.90;100.00
36454;BME280;22478;51.740;-1.314;2022-09-27T03:15:00;99170.14;;;-0.04;100.00
36454;BME280;22478;51.740;-1.314;2022-09-27T03:17:27;99167.06;;;0.28;100.00
36454;BME280;22478;51.740;-1.314;2022-09-27T03:19:54;99164.07;;;0.52;100.00
36454;BME280;22478;51.740;-1.314;2022-09-27T03:22:22;99168.25;;;0.23;100.00
36454;BME280;22478;51.740;-1.314;2022-09-27T03:24:49;99163.11;;;0.46;100.00
36454;BME280;22478;51.740;-1.314;2022-09-27T03:27:16;99153.92;;;1.06;100.00
36454;BME280;22478;51.740;-1.314;2022-09-27T03:29:44;99163.27;;;0.47;100.00
36454;BME280;22478;51.740;-1.314;2022-09-27T03:32:11;99155.96;;;0.42;100.00
36454;BME280;22478;51.740;-1.314;2022-09-27T03:34:39;99153.87;;;0.19;100.00
36454;BME280;22478;51.740;-1.314;2022-09-27T03:37:06;99154.58;;;1.07;100.00
36454;BME280;22478;51.740;-1.314;2022-09-27T03:39:34;99156.99;;;0.33;100.00
36454;BME280;22478;51.740;-1.314;2022-09-27T03:42:01;99154.92;;;0.58;100.00
36454;BME280;22478;51.740;-1.314;2022-09-27T03:44:28;99153.73;;;0.10;100.00
36454;BME280;22478;51.740;-1.314;2022-09-27T03:46:55;99156.05;;;0.01;100.00
36454;BME280;22478;51.740;-1.314;2022-09-27T03:49:22;99156.41;;;0.80;100.00
36454;BME280;22478;51.740;-1.314;2022-09-27T03:51:50;99156.83;;;0.82;100.00
36454;BME280;22478;51.740;-1.314;2022-09-27T03:54:17;99155.51;;;1.82;100.00
36454;BME280;22478;51.740;-1.314;2022-09-27T03:56:44;99161.33;;;0.06;100.00
36454;BME280;22478;51.740;-1.314;2022-09-27T03:59:11;99154.72;;;0.84;100.00
36454;BME280;22478;51.740;-1.314;2022-09-27T04:01:38;99153.48;;;0.49;100.00
36454;BME280;22478;51.740;-1.314;2022-09-27T04:04:05;99151.28;;;1.34;100.00
36454;BME280;22478;51.740;-1.314;2022-09-27T04:06:33;99142.88;;;1.23;100.00
36454;BME280;22478;51.740;-1.314;2022-09-27T04:09:00;99141.03;;;0.69;100.00
36454;BME280;22478;51.740;-1.314;2022-09-27T04:11:27;99141.99;;;-0.02;100.00
36454;BME280;22478;51.740;-1.314;2022-09-27T04:13:55;99145.05;;;0.11;100.00
36454;BME280;22478;51.740;-1.314;2022-09-27T04:16:22;99146.83;;;-0.19;100.00
36454;BME280;22478;51.740;-1.314;2022-09-27T04:18:49;99147.08;;;-0.02;100.00
36454;BME280;22478;51.740;-1.314;2022-09-27T04:21:16;99142.22;;;-0.07;100.00
36454;BME280;22478;51.740;-1.314;2022-09-27T04:23:43;99140.94;;;0.30;100.00
36454;BME280;22478;51.740;-1.314;2022-09-27T04:26:10;99141.70;;;-0.09;100.00
36454;BME280;22478;51.740;-1.314;2022-09-27T04:28:37;99141.69;;;0.32;100.00
36454;BME280;22478;51.740;-1.314;2022-09-27T04:31:04;99140.65;;;0.61;100.00
36454;BME280;22478;51.740;-1.314;2022-09-27T04:33:31;99139.77;;;0.22;100.00
36454;BME280;22478;51.740;-1.314;2022-09-27T04:35:59;99137.73;;;1.11;100.00
36454;BME280;22478;51.740;-1.314;2022-09-27T04:38:26;99135.37;;;1.46;100.00
36454;BME280;22478;51.740;-1.314;2022-09-27T04:40:53;99142.18;;;0.49;100.00
36454;BME280;22478;51.740;-1.314;2022-09-27T04:43:20;99141.85;;;0.33;100.00
36454;BME280;22478;51.740;-1.314;2022-09-27T04:45:47;99139.05;;;1.48;100.00
36454;BME280;22478;51.740;-1.314;2022-09-27T04:48:15;99140.20;;;0.91;100.00
36454;BME280;22478;51.740;-1.314;2022-09-27T04:50:42;99133.82;;;0.75;100.00
36454;BME280;22478;51.740;-1.314;2022-09-27T04:53:11;99121.19;;;1.60;100.00
36454;BME280;22478;51.740;-1.314;2022-09-27T04:55:43;99128.27;;;0.42;100.00
36454;BME280;22478;51.740;-1.314;2022-09-27T04:58:11;99125.58;;;1.07;100.00
36454;BME280;22478;51.740;-1.314;2022-09-27T05:00:38;99124.41;;;0.83;100.00
36454;BME280;22478;51.740;-1.314;2022-09-27T05:03:06;99113.56;;;0.93;100.00
36454;BME280;22478;51.740;-1.314;2022-09-27T05:05:33;99103.86;;;1.51;100.00
36454;BME280;22478;51.740;-1.314;2022-09-27T05:08:00;99112.90;;;1.42;100.00
36454;BME280;22478;51.740;-1.314;2022-09-27T05:10:28;99121.44;;;0.99;100.00
36454;BME280;22478;51.740;-1.314;2022-09-27T05:12:55;99122.40;;;0.64;100.00
36454;BME280;22478;51.740;-1.314;2022-09-27T05:15:22;99116.27;;;2.03;100.00
36454;BME280;22478;51.740;-1.314;2022-09-27T05:17:50;99115.66;;;2.22;100.00
36454;BME280;22478;51.740;-1.314;2022-09-27T05:20:17;99120.60;;;1.12;100.00
36454;BME280;22478;51.740;-1.314;2022-09-27T05:22:45;99119.30;;;2.00;100.00
36454;BME280;22478;51.740;-1.314;2022-09-27T05:25:12;99109.89;;;2.26;100.00
36454;BME280;22478;51.740;-1.314;2022-09-27T05:27:40;99106.53;;;2.80;100.00
36454;BME280;22478;51.740;-1.314;2022-09-27T05:30:07;99106.49;;;2.28;100.00
36454;BME280;22478;51.740;-1.314;2022-09-27T05:32:35;99097.26;;;3.60;100.00
36454;BME280;22478;51.740;-1.314;2022-09-27T05:35:06;99098.48;;;3.55;100.00
36454;BME280;22478;51.740;-1.314;2022-09-27T05:37:33;99094.16;;;4.67;100.00
36454;BME280;22478;51.740;-1.314;2022-09-27T05:40:01;99089.29;;;4.78;100.00
36454;BME280;22478;51.740;-1.314;2022-09-27T05:42:28;99094.76;;;2.94;100.00
36454;BME280;22478;51.740;-1.314;2022-09-27T05:44:55;99086.38;;;5.01;100.00
36454;BME280;22478;51.740;-1.314;2022-09-27T05:47:22;99088.11;;;4.41;100.00
36454;BME280;22478;51.740;-1.314;2022-09-27T05:49:49;99085.95;;;4.66;100.00
36454;BME280;22478;51.740;-1.314;2022-09-27T05:52:17;99082.99;;;3.68;100.00
36454;BME280;22478;51.740;-1.314;2022-09-27T05:54:43;99084.56;;;3.41;100.00
36454;BME280;22478;51.740;-1.314;2022-09-27T05:57:11;99081.45;;;3.90;100.00
36454;BME280;22478;51.740;-1.314;2022-09-27T05:59:38;99086.62;;;4.70;100.00
36454;BME280;22478;51.740;-1.314;2022-09-27T06:02:05;99087.48;;;3.88;100.00
36454;BME280;22478;51.740;-1.314;2022-09-27T06:04:32;99086.47;;;3.68;100.00
36454;BME280;22478;51.740;-1.314;2022-09-27T06:06:59;99092.31;;;2.49;100.00
36454;BME280;22478;51.740;-1.314;2022-09-27T06:09:26;99088.28;;;2.34;100.00
36454;BME280;22478;51.740;-1.314;2022-09-27T06:11:54;99084.59;;;3.50;100.00
36454;BME280;22478;51.740;-1.314;2022-09-27T06:14:21;99076.48;;;3.07;100.00
36454;BME280;22478;51.740;-1.314;2022-09-27T06:16:48;99074.58;;;3.14;100.00
36454;BME280;22478;51.740;-1.314;2022-09-27T06:19:15;99064.10;;;4.90;100.00
36454;BME280;22478;51.740;-1.314;2022-09-27T06:21:42;99051.74;;;6.36;100.00
36454;BME280;22478;51.740;-1.314;2022-09-27T06:24:10;99057.60;;;3.90;100.00
36454;BME280;22478;51.740;-1.314;2022-09-27T06:26:37;99059.26;;;3.92;100.00
36454;BME280;22478;51.740;-1.314;2022-09-27T06:29:04;99062.29;;;3.61;100.00
36454;BME280;22478;51.740;-1.314;2022-09-27T06:31:32;99055.30;;;4.85;100.00
36454;BME280;22478;51.740;-1.314;2022-09-27T06:33:59;99050.46;;;3.55;100.00
36454;BME280;22478;51.740;-1.314;2022-09-27T06:36:26;99053.88;;;1.52;100.00
36454;BME280;22478;51.740;-1.314;2022-09-27T06:38:53;99053.81;;;2.88;100.00
36454;BME280;22478;51.740;-1.314;2022-09-27T06:41:20;99062.96;;;1.93;100.00
36454;BME280;22478;51.740;-1.314;2022-09-27T06:43:47;99061.37;;;1.60;100.00
36454;BME280;22478;51.740;-1.314;2022-09-27T06:46:15;99048.57;;;2.70;100.00
36454;BME280;22478;51.740;-1.314;2022-09-27T06:48:42;99050.01;;;1.85;100.00
36454;BME280;22478;51.740;-1.314;2022-09-27T06:51:09;99047.29;;;1.03;100.00
36454;BME280;22478;51.740;-1.314;2022-09-27T06:53:35;99046.97;;;2.21;100.00
36454;BME280;22478;51.740;-1.314;2022-09-27T06:56:03;99037.81;;;2.49;100.00
36454;BME280;22478;51.740;-1.314;2022-09-27T06:58:30;99049.95;;;2.00;100.00
36454;BME280;22478;51.740;-1.314;2022-09-27T07:00:57;99043.00;;;2.41;100.00
36454;BME280;22478;51.740;-1.314;2022-09-27T07:03:24;99047.28;;;1.29;100.00
36454;BME280;22478;51.740;-1.314;2022-09-27T07:05:56;99040.67;;;1.48;100.00
36454;BME280;22478;51.740;-1.314;2022-09-27T07:08:24;99031.20;;;3.17;100.00
36454;BME280;22478;51.740;-1.314;2022-09-27T07:10:52;99031.03;;;3.00;100.00
36454;BME280;22478;51.740;-1.314;2022-09-27T07:13:19;99035.93;;;1.11;100.00
36454;BME280;22478;51.740;-1.314;2022-09-27T07:15:47;99030.26;;;2.21;100.00
36454;BME280;22478;51.740;-1.314;2022-09-27T07:18:14;99025.05;;;3.07;100.00
36454;BME280;22478;51.740;-1.314;2022-09-27T07:20:41;99021.84;;;2.35;100.00
36454;BME280;22478;51.740;-1.314;2022-09-27T07:23:10;99019.93;;;4.16;100.00
36454;BME280;22478;51.740;-1.314;2022-09-27T07:25:37;99018.08;;;3.30;100.00
36454;BME280;22478;51.740;-1.314;2022-09-27T07:28:06;99018.34;;;1.38;100.00
36454;BME280;22478;51.740;-1.314;2022-09-27T07:30:35;99023.21;;;2.09;100.00
36454;BME280;22478;51.740;-1.314;2022-09-27T07:33:04;99016.32;;;3.06;100.00
36454;BME280;22478;51.740;-1.314;2022-09-27T07:35:32;99018.65;;;2.71;100.00
36454;BME280;22478;51.740;-1.314;2022-09-27T07:37:58;99011.93;;;4.08;100.00
36454;BME280;22478;51.740;-1.314;2022-09-27T07:40:25;99017.37;;;1.94;100.00
36454;BME280;22478;51.740;-1.314;2022-09-27T07:42:54;99009.17;;;3.33;100.00
36454;BME280;22478;51.740;-1.314;2022-09-27T07:45:22;98993.04;;;5.47;100.00
36454;BME280;22478;51.740;-1.314;2022-09-27T07:47:50;98990.44;;;5.69;100.00
36454;BME280;22478;51.740;-1.314;2022-09-27T07:50:17;98983.92;;;6.82;100.00
36454;BME280;22478;51.740;-1.314;2022-09-27T07:52:46;98977.88;;;7.38;100.00
36454;BME280;22478;51.740;-1.314;2022-09-27T07:55:14;98974.57;;;7.97;100.00
36454;BME280;22478;51.740;-1.314;2022-09-27T07:57:42;98976.94;;;4.46;100.00
36454;BME280;22478;51.740;-1.314;2022-09-27T08:00:11;98965.10;;;6.44;100.00
36454;BME280;22478;51.740;-1.314;2022-09-27T08:02:39;98965.30;;;8.67;100.00
36454;BME280;22478;51.740;-1.314;2022-09-27T08:05:07;98973.12;;;7.53;100.00
36454;BME280;22478;51.740;-1.314;2022-09-27T08:07:35;98978.46;;;3.55;100.00
36454;BME280;22478;51.740;-1.314;2022-09-27T08:10:03;98977.19;;;4.43;100.00
36454;BME280;22478;51.740;-1.314;2022-09-27T08:12:31;98986.16;;;3.76;100.00
36454;BME280;22478;51.740;-1.314;2022-09-27T08:14:58;98979.50;;;6.29;100.00
36454;BME280;22478;51.740;-1.314;2022-09-27T08:17:25;98981.92;;;5.68;100.00
36454;BME280;22478;51.740;-1.314;2022-09-27T08:19:52;98981.21;;;6.32;100.00
36454;BME280;22478;51.740;-1.314;2022-09-27T08:22:20;98980.67;;;5.97;100.00
36454;BME280;22478;51.740;-1.314;2022-09-27T08:24:47;98980.58;;;4.82;100.00
36454;BME280;22478;51.740;-1.314;2022-09-27T08:27:15;98997.04;;;3.85;100.00
36454;BME280;22478;51.740;-1.314;2022-09-27T08:29:43;98993.64;;;4.80;100.00
36454;BME280;22478;51.740;-1.314;2022-09-27T08:32:11;98992.29;;;5.96;100.00
36454;BME280;22478;51.740;-1.314;2022-09-27T08:34:38;98994.62;;;4.59;100.00
36454;BME280;22478;51.740;-1.314;2022-09-27T08:37:05;99006.16;;;2.92;100.00
36454;BME280;22478;51.740;-1.314;2022-09-27T08:39:33;99010.56;;;4.37;100.00
36454;BME280;22478;51.740;-1.314;2022-09-27T08:42:05;99003.36;;;3.35;100.00
36454;BME280;22478;51.740;-1.314;2022-09-27T08:44:41;98995.14;;;5.14;100.00
36454;BME280;22478;51.740;-1.314;2022-09-27T08:47:14;99001.25;;;4.15;100.00
36454;BME280;22478;51.740;-1.314;2022-09-27T08:49:45;99004.14;;;3.44;100.00
36454;BME280;22478;51.740;-1.314;2022-09-27T08:52:18;98995.73;;;4.33;100.00
36454;BME280;22478;51.740;-1.314;2022-09-27T08:54:48;99002.11;;;3.71;100.00
36454;BME280;22478;51.740;-1.314;2022-09-27T08:57:16;99001.97;;;3.33;100.00
36454;BME280;22478;51.740;-1.314;2022-09-27T08:59:47;99001.78;;;4.42;100.00
36454;BME280;22478;51.740;-1.314;2022-09-27T09:02:18;98993.28;;;5.08;100.00
36454;BME280;22478;51.740;-1.314;2022-09-27T09:04:50;98996.03;;;4.20;100.00
36454;BME280;22478;51.740;-1.314;2022-09-27T09:07:30;98986.26;;;5.30;100.00
36454;BME280;22478;51.740;-1.314;2022-09-27T09:10:14;98985.61;;;5.80;100.00
36454;BME280;22478;51.740;-1.314;2022-09-27T09:12:49;98980.13;;;5.09;100.00
36454;BME280;22478;51.740;-1.314;2022-09-27T09:15:28;98976.00;;;6.62;100.00
36454;BME280;22478;51.740;-1.314;2022-09-27T09:18:14;98980.02;;;3.71;100.00
36454;BME280;22478;51.740;-1.314;2022-09-27T09:20:54;98972.71;;;6.07;100.00
36454;BME280;22478;51.740;-1.314;2022-09-27T09:23:38;98974.16;;;5.85;100.00
36454;BME280;22478;51.740;-1.314;2022-09-27T09:26:16;98980.49;;;3.54;100.00
36454;BME280;22478;51.740;-1.314;2022-09-27T09:28:58;98983.07;;;3.93;100.00
36454;BME280;22478;51.740;-1.314;2022-09-27T09:31:35;98972.06;;;5.24;100.00
36454;BME280;22478;51.740;-1.314;2022-09-27T09:34:11;98984.52;;;3.91;100.00
36454;BME280;22478;51.740;-1.314;2022-09-27T09:36:44;98993.48;;;4.33;100.00
36454;BME280;22478;51.740;-1.314;2022-09-27T09:39:15;98983.31;;;4.27;100.00
36454;BME280;22478;51.740;-1.314;2022-09-27T09:41:56;98978.55;;;4.86;100.00
36454;BME280;22478;51.740;-1.314;2022-09-27T09:44:28;98976.11;;;4.30;100.00
36454;BME280;22478;51.740;-1.314;2022-09-27T09:47:00;98968.95;;;5.05;100.00
36454;BME280;22478;51.740;-1.314;2022-09-27T09:49:30;98964.71;;;5.40;100.00
36454;BME280;22478;51.740;-1.314;2022-09-27T09:52:03;98956.17;;;5.99;100.00
36454;BME280;22478;51.740;-1.314;2022-09-27T09:54:36;98964.44;;;5.40;100.00
36454;BME280;22478;51.740;-1.314;2022-09-27T09:57:07;98969.02;;;5.03;100.00
36454;BME280;22478;51.740;-1.314;2022-09-27T09:59:42;98965.13;;;6.13;100.00
36454;BME280;22478;51.740;-1.314;2022-09-27T10:02:21;98965.79;;;5.14;100.00
36454;BME280;22478;51.740;-1.314;2022-09-27T10:04:51;98957.07;;;5.34;100.00
36454;BME280;22478;51.740;-1.314;2022-09-27T10:07:21;98957.21;;;4.87;100.00
36454;BME280;22478;51.740;-1.314;2022-09-27T10:09:49;98954.59;;;4.38;100.00
36454;BME280;22478;51.740;-1.314;2022-09-27T10:12:17;98943.12;;;5.76;100.00
36454;BME280;22478;51.740;-1.314;2022-09-27T10:14:46;98945.97;;;4.98;100.00
36454;BME280;22478;51.740;-1.314;2022-09-27T10:17:17;98934.85;;;5.00;100.00
36454;BME280;22478;51.740;-1.314;2022-09-27T10:19:46;98935.22;;;5.54;100.00
36454;BME280;22478;51.740;-1.314;2022-09-27T10:22:20;98927.27;;;6.14;100.00
36454;BME280;22478;51.740;-1.314;2022-09-27T10:24:54;98929.19;;;6.32;100.00
36454;BME280;22478;51.740;-1.314;2022-09-27T10:27:23;98925.48;;;5.51;100.00
36454;BME280;22478;51.740;-1.314;2022-09-27T10:29:56;98919.95;;;6.94;100.00
36454;BME280;22478;51.740;-1.314;2022-09-27T10:32:26;98922.33;;;5.79;100.00
36454;BME280;22478;51.740;-1.314;2022-09-27T10:34:54;98919.40;;;5.18;100.00
36454;BME280;22478;51.740;-1.314;2022-09-27T10:37:22;98910.93;;;5.39;100.00
36454;BME280;22478;51.740;-1.314;2022-09-27T10:39:50;98918.12;;;5.36;100.00
36454;BME280;22478;51.740;-1.314;2022-09-27T10:42:21;98914.89;;;4.01;100.00
36454;BME280;22478;51.740;-1.314;2022-09-27T10:44:48;98922.26;;;3.88;100.00
36454;BME280;22478;51.740;-1.314;2022-09-27T10:47:18;98927.71;;;3.71;100.00
36454;BME280;22478;51.740;-1.314;2022-09-27T10:49:47;98925.86;;;3.41;100.00
36454;BME280;22478;51.740;-1.314;2022-09-27T10:52:16;98922.80;;;4.22;100.00
36454;BME280;22478;51.740;-1.314;2022-09-27T10:54:52;98919.67;;;4.55;100.00
36454;BME280;22478;51.740;-1.314;2022-09-27T10:57:21;98938.00;;;2.96;100.00
36454;BME280;22478;51.740;-1.314;2022-09-27T10:59:51;98935.16;;;2.98;100.00
36454;BME280;22478;51.740;-1.314;2022-09-27T11:02:20;98926.65;;;4.83;100.00
36454;BME280;22478;51.740;-1.314;2022-09-27T11:05:03;98929.16;;;3.48;100.00
36454;BME280;22478;51.740;-1.314;2022-09-27T11:07:31;98912.26;;;5.08;100.00
36454;BME280;22478;51.740;-1.314;2022-09-27T11:09:58;98903.32;;;6.44;100.00
36454;BME280;22478;51.740;-1.314;2022-09-27T11:12:25;98895.17;;;7.03;100.00
36454;BME280;22478;51.740;-1.314;2022-09-27T11:14:56;98878.48;;;9.77;100.00
36454;BME280;22478;51.740;-1.314;2022-09-27T11:17:33;98873.10;;;9.42;100.00
36454;BME280;22478;51.740;-1.314;2022-09-27T11:20:14;98877.30;;;6.10;100.00
36454;BME280;22478;51.740;-1.314;2022-09-27T11:23:01;98877.73;;;6.34;100.00
36454;BME280;22478;51.740;-1.314;2022-09-27T11:25:38;98888.10;;;4.82;100.00
36454;BME280;22478;51.740;-1.314;2022-09-27T11:28:19;98893.05;;;4.45;100.00
36454;BME280;22478;51.740;-1.314;2022-09-27T11:30:57;98873.67;;;6.43;100.00
36454;BME280;22478;51.740;-1.314;2022-09-27T11:34:47;98878.91;;;5.33;100.00
36454;BME280;22478;51.740;-1.314;2022-09-27T11:37:22;98874.06;;;6.19;100.00
36454;BME280;22478;51.740;-1.314;2022-09-27T11:40:04;98870.25;;;7.81;100.00
36454;BME280;22478;51.740;-1.314;2022-09-27T11:42:55;98877.36;;;6.52;100.00
36454;BME280;22478;51.740;-1.314;2022-09-27T11:45:37;98877.94;;;5.51;100.00
36454;BME280;22478;51.740;-1.314;2022-09-27T11:48:15;98878.08;;;6.14;100.00
36454;BME280;22478;51.740;-1.314;2022-09-27T11:50:58;98884.74;;;5.78;100.00
36454;BME280;22478;51.740;-1.314;2022-09-27T11:53:40;98881.28;;;6.49;100.00
36454;BME280;22478;51.740;-1.314;2022-09-27T11:56:19;98888.81;;;5.79;100.00
36454;BME280;22478;51.740;-1.314;2022-09-27T11:59:04;98885.97;;;6.10;100.00
36454;BME280;22478;51.740;-1.314;2022-09-27T12:01:42;98892.28;;;3.99;100.00
36454;BME280;22478;51.740;-1.314;2022-09-27T12:04:59;98895.48;;;4.63;100.00
36454;BME280;22478;51.740;-1.314;2022-09-27T12:07:41;98907.84;;;4.68;100.00
36454;BME280;22478;51.740;-1.314;2022-09-27T12:10:14;98909.33;;;3.74;100.00
36454;BME280;22478;51.740;-1.314;2022-09-27T12:12:45;98907.92;;;4.34;100.00
36454;BME280;22478;51.740;-1.314;2022-09-27T12:15:18;98913.60;;;3.51;100.00
36454;BME280;22478;51.740;-1.314;2022-09-27T12:17:48;98908.24;;;2.98;100.00
36454;BME280;22478;51.740;-1.314;2022-09-27T12:20:21;98897.31;;;3.41;100.00
36454;BME280;22478;51.740;-1.314;2022-09-27T12:22:53;98884.37;;;4.76;100.00
36454;BME280;22478;51.740;-1.314;2022-09-27T12:25:24;98872.93;;;5.23;100.00
36454;BME280;22478;51.740;-1.314;2022-09-27T12:27:55;98866.06;;;5.19;100.00
36454;BME280;22478;51.740;-1.314;2022-09-27T12:30:26;98870.35;;;4.77;100.00
36454;BME280;22478;51.740;-1.314;2022-09-27T12:33:03;98869.48;;;6.97;100.00
36454;BME280;22478;51.740;-1.314;2022-09-27T12:35:38;98870.46;;;7.51;100.00
36454;BME280;22478;51.740;-1.314;2022-09-27T12:38:11;98880.52;;;5.88;100.00
36454;BME280;22478;51.740;-1.314;2022-09-27T12:40:40;98873.62;;;5.24;100.00
36454;BME280;22478;51.740;-1.314;2022-09-27T12:43:15;98862.61;;;6.75;100.00
36454;BME280;22478;51.740;-1.314;2022-09-27T12:45:49;98854.49;;;6.00;100.00
36454;BME280;22478;51.740;-1.314;2022-09-27T12:48:24;98849.79;;;7.77;100.00
36454;BME280;22478;51.740;-1.314;2022-09-27T12:51:02;98854.28;;;5.34;100.00
36454;BME280;22478;51.740;-1.314;2022-09-27T12:53:42;98851.36;;;4.77;100.00
36454;BME280;22478;51.740;-1.314;2022-09-27T12:56:23;98848.46;;;4.83;100.00
36454;BME280;22478;51.740;-1.314;2022-09-27T12:59:09;98852.04;;;4.19;100.00
36454;BME280;22478;51.740;-1.314;2022-09-27T13:03:20;98846.98;;;5.14;100.00
36454;BME280;22478;51.740;-1.314;2022-09-27T13:06:03;98828.15;;;7.36;100.00
36454;BME280;22478;51.740;-1.314;2022-09-27T13:08:54;98828.90;;;5.56;100.00
36454;BME280;22478;51.740;-1.314;2022-09-27T13:11:26;98832.93;;;5.33;100.00
36454;BME280;22478;51.740;-1.314;2022-09-27T13:13:56;98829.71;;;5.43;100.00